Time;durP1;ratioP1;P1;durP2;ratioP2;P2;SDS_P1;SDS_P2;PMS_P1;PMS_P2;Temp;Humidity;BMP_temperature;BMP_pressure;BME280_temperature;BME280_humidity;BME280_pressure;Samples;Min_cycle;Max_cycle;Signal;HPM_P1;HPM_P2
2022/05/17 00:00:25;;;;;;;2.40;1.60;;;;;;;18.18;63.80;97780.44;6253894;28;20596;-70
2022/05/17 00:03:27;;;;;;;3.47;1.40;;;;;;;18.13;62.86;97774.75;6246482;28;20714;-70
2022/05/17 00:06:29;;;;;;;3.73;1.67;;;;;;;18.12;62.51;97776.59;6229058;28;20231;-71
2022/05/17 00:09:33;;;;;;;2.30;1.47;;;;;;;18.12;62.83;97775.75;6230415;28;20219;-70
2022/05/17 00:12:35;;;;;;;5.33;1.60;;;;;;;18.10;62.56;97767.91;6228664;28;20235;-70
2022/05/17 00:15:44;;;;;;;4.60;1.70;;;;;;;18.09;62.46;97771.59;6228882;28;20655;-70
2022/05/17 00:18:47;;;;;;;2.87;1.60;;;;;;;18.06;62.59;97775.44;6228577;28;20232;-71
2022/05/17 00:21:50;;;;;;;4.37;1.63;;;;;;;18.04;62.59;97779.28;6202725;28;20237;-70
2022/05/17 00:24:53;;;;;;;4.37;1.57;;;;;;;18.06;62.62;97783.47;6218808;28;20246;-69
2022/05/17 00:27:55;;;;;;;2.77;1.87;;;;;;;18.05;62.49;97788.97;6227905;28;20282;-70
2022/05/17 00:30:58;;;;;;;1.70;1.60;;;;;;;18.05;62.58;97776.44;6210390;28;20737;-71
2022/05/17 00:34:03;;;;;;;5.67;1.80;;;;;;;18.04;62.36;97776.59;6210762;28;20581;-70
2022/05/17 00:37:05;;;;;;;3.27;1.77;;;;;;;18.04;62.12;97779.28;6228947;28;20285;-71
2022/05/17 00:40:09;;;;;;;4.20;1.43;;;;;;;18.04;62.17;97781.94;6210975;28;20797;-70
2022/05/17 00:43:26;;;;;;;3.33;1.60;;;;;;;17.98;62.26;97782.59;6211327;28;20262;-69
2022/05/17 00:46:46;;;;;;;2.23;1.60;;;;;;;18.02;61.45;97797.31;6228381;28;20690;-71
2022/05/17 00:50:05;;;;;;;3.37;1.73;;;;;;;18.04;61.85;97773.94;6228234;28;20234;-70
2022/05/17 00:53:12;;;;;;;4.47;1.67;;;;;;;18.00;61.60;97781.44;6226410;28;20228;-70
2022/05/17 00:56:19;;;;;;;2.00;1.80;;;;;;;18.02;61.12;97783.94;6227748;28;20237;-71
2022/05/17 00:59:23;;;;;;;4.83;1.70;;;;;;;18.00;61.40;97785.94;6226126;28;20224;-70
2022/05/17 01:02:27;;;;;;;5.47;1.50;;;;;;;18.01;61.42;97776.94;6227309;28;20236;-71
2022/05/17 01:05:34;;;;;;;2.50;1.73;;;;;;;18.02;61.19;97778.59;6252154;28;20260;-70
2022/05/17 01:08:36;;;;;;;3.13;1.80;;;;;;;18.04;61.45;97779.28;6251713;28;20222;-70
2022/05/17 01:11:39;;;;;;;4.23;2.20;;;;;;;17.99;61.77;97779.78;6253554;28;20729;-70
2022/05/17 01:14:57;;;;;;;2.80;1.63;;;;;;;17.99;62.20;97771.75;6253047;28;20227;-70
2022/05/17 01:17:59;;;;;;;3.10;1.40;;;;;;;17.99;62.19;97785.09;6240374;28;20238;-71
2022/05/17 01:21:02;;;;;;;2.27;1.70;;;;;;;17.98;62.21;97779.94;6246237;28;20441;-71
2022/05/17 01:24:04;;;;;;;2.17;1.40;;;;;;;17.91;62.62;97768.25;6235137;28;20239;-70
2022/05/17 01:27:14;;;;;;;4.27;1.87;;;;;;;17.90;62.60;97774.59;6252405;28;20219;-71
2022/05/17 01:30:20;;;;;;;2.40;1.60;;;;;;;17.88;62.46;97761.41;6230664;28;20729;-70
2022/05/17 01:33:22;;;;;;;2.87;1.80;;;;;;;17.91;62.13;97769.09;6241904;28;20242;-71
2022/05/17 01:36:24;;;;;;;2.30;1.37;;;;;;;17.93;62.35;97761.75;6255834;28;20330;-71
2022/05/17 01:39:26;;;;;;;3.13;1.37;;;;;;;17.92;62.58;97749.41;6257429;28;20219;-70
2022/05/17 01:42:28;;;;;;;4.33;1.53;;;;;;;17.87;63.46;97764.25;6257765;28;20579;-71
2022/05/17 01:45:31;;;;;;;3.87;1.40;;;;;;;17.79;63.99;97770.41;6257237;28;20273;-70
2022/05/17 01:48:33;;;;;;;2.63;1.43;;;;;;;17.77;63.38;97774.28;6256987;28;20314;-71
2022/05/17 01:51:35;;;;;;;2.03;1.40;;;;;;;17.78;62.63;97760.75;6257490;28;20293;-69
2022/05/17 01:54:37;;;;;;;2.53;1.97;;;;;;;17.85;62.41;97763.59;6256887;28;20641;-71
2022/05/17 01:57:40;;;;;;;4.07;1.50;;;;;;;17.85;62.61;97761.75;6257136;28;20353;-70
2022/05/17 02:00:44;;;;;;;3.10;1.27;;;;;;;17.81;62.66;97755.06;6256332;28;20718;-69
2022/05/17 02:03:46;;;;;;;3.93;1.50;;;;;;;17.81;62.76;97759.56;6256620;28;20235;-70
2022/05/17 02:06:48;;;;;;;2.97;1.50;;;;;;;17.78;63.12;97746.56;6256760;28;20316;-71
2022/05/17 02:09:50;;;;;;;2.97;1.53;;;;;;;17.79;62.90;97751.72;6256624;28;20237;-70
2022/05/17 02:12:54;;;;;;;4.97;1.40;;;;;;;17.81;63.01;97741.72;6256578;28;20263;-70
2022/05/17 02:15:56;;;;;;;3.40;1.50;;;;;;;17.75;63.54;97745.06;6255414;28;20592;-70
2022/05/17 02:18:58;;;;;;;4.37;1.60;;;;;;;17.72;63.52;97749.91;6256215;28;20835;-71
2022/05/17 02:22:00;;;;;;;2.63;1.30;;;;;;;17.73;63.16;97751.56;6238868;28;20289;-71
2022/05/17 02:25:02;;;;;;;3.23;1.20;;;;;;;17.70;63.46;97756.22;6254133;28;20235;-70
2022/05/17 02:28:07;;;;;;;2.00;1.53;;;;;;;17.68;63.11;97752.91;6255698;28;20280;-71
2022/05/17 02:31:15;;;;;;;2.93;1.43;;;;;;;17.68;63.66;97760.06;6255867;28;20681;-71
2022/05/17 02:34:19;;;;;;;2.47;1.30;;;;;;;17.63;63.55;97755.25;6242517;28;20334;-71
2022/05/17 02:37:22;;;;;;;2.60;1.30;;;;;;;17.64;63.41;97751.56;6255108;28;20345;-70
2022/05/17 02:40:24;;;;;;;3.10;1.10;;;;;;;17.66;63.66;97748.75;6255430;28;20249;-71
2022/05/17 02:43:26;;;;;;;1.83;1.20;;;;;;;17.65;63.44;97777.28;6255076;28;20238;-70
2022/05/17 02:46:31;;;;;;;2.53;1.40;;;;;;;17.65;63.05;97763.09;6255250;28;20589;-70
2022/05/17 02:49:34;;;;;;;2.63;1.23;;;;;;;17.60;62.92;97776.88;6229215;28;20759;-70
2022/05/17 02:52:37;;;;;;;3.37;1.50;;;;;;;17.60;63.37;97776.88;6237936;28;20223;-70
2022/05/17 02:55:39;;;;;;;3.00;1.60;;;;;;;17.58;63.27;97778.03;6255003;28;20726;-71
2022/05/17 02:58:41;;;;;;;1.50;1.40;;;;;;;17.56;63.27;97774.72;6237094;28;20245;-71
2022/05/17 04:01:41;;;;;;;2.33;1.40;;;;;;;17.28;66.21;97819.50;2781090;28;22623;-72
2022/05/17 04:04:44;;;;;;;3.37;1.77;;;;;;;17.21;66.74;97819.31;6252263;28;20320;-71
2022/05/17 04:07:46;;;;;;;3.33;1.77;;;;;;;17.17;67.09;97825.16;6220538;28;20230;-70
2022/05/17 04:10:48;;;;;;;1.60;1.40;;;;;;;17.16;67.20;97826.97;6254333;28;20698;-71
2022/05/17 04:13:50;;;;;;;3.63;1.50;;;;;;;17.21;67.25;97832.63;6236087;28;20231;-70
2022/05/17 04:16:52;;;;;;;3.30;1.60;;;;;;;17.20;68.00;97825.63;6253314;28;20261;-70
2022/05/17 04:19:54;;;;;;;3.00;1.40;;;;;;;17.19;68.47;97829.28;6235536;28;20583;-70
2022/05/17 04:22:55;;;;;;;5.00;1.73;;;;;;;17.10;69.20;97846.25;6252865;28;20222;-70
2022/05/17 04:25:58;;;;;;;2.00;1.30;;;;;;;17.06;69.66;97834.25;6234943;28;20233;-71
2022/05/17 04:29:00;;;;;;;2.23;1.70;;;;;;;17.01;70.33;97822.38;6253256;28;20242;-71
2022/05/17 04:32:02;;;;;;;2.03;1.50;;;;;;;16.98;70.73;97824.38;6252688;28;20301;-71
2022/05/17 04:35:05;;;;;;;2.37;1.40;;;;;;;16.98;70.66;97826.19;6235520;28;20227;-71
2022/05/17 04:38:08;;;;;;;7.10;2.13;;;;;;;16.97;71.26;97824.53;6252550;28;20237;-71
2022/05/17 04:41:10;;;;;;;2.53;1.40;;;;;;;16.97;71.15;97828.03;6252690;28;20742;-71
2022/05/17 04:44:12;;;;;;;3.20;1.67;;;;;;;16.98;71.23;97834.19;6234674;28;20227;-71
2022/05/17 04:47:14;;;;;;;2.43;1.53;;;;;;;16.90;71.95;97818.16;6252617;28;20360;-70
2022/05/17 04:50:18;;;;;;;2.07;1.70;;;;;;;16.83;72.74;97841.13;6236688;28;20881;-70
2022/05/17 04:53:20;;;;;;;4.07;2.33;;;;;;;16.76;72.99;97824.94;6252297;28;20318;-71
2022/05/17 04:56:24;;;;;;;4.43;1.90;;;;;;;16.69;73.34;97823.88;6252565;28;20234;-70
2022/05/17 04:59:26;;;;;;;5.70;2.00;;;;;;;16.68;73.42;97829.38;6213661;28;20238;-71
2022/05/17 05:02:28;;;;;;;4.43;2.03;;;;;;;16.72;73.33;97818.25;6119021;28;20704;-71
2022/05/17 05:05:30;;;;;;;2.87;1.80;;;;;;;16.69;73.61;97817.72;6256889;28;20321;-71
2022/05/17 05:08:32;;;;;;;4.27;2.07;;;;;;;16.69;74.06;97828.38;6257990;28;20230;-71
2022/05/17 05:11:34;;;;;;;2.47;1.80;;;;;;;16.70;73.61;97838.03;6256965;28;20231;-71
2022/05/17 05:14:36;;;;;;;3.13;2.40;;;;;;;16.72;74.05;97830.75;6240370;28;20239;-71
2022/05/17 05:17:39;;;;;;;3.37;2.17;;;;;;;16.80;73.70;97838.78;6237314;28;20231;-71
2022/05/17 05:20:43;;;;;;;2.83;2.00;;;;;;;16.84;73.39;97832.97;6257015;28;20300;-71
2022/05/17 05:23:45;;;;;;;5.43;2.20;;;;;;;16.84;73.23;97832.97;6256514;28;20365;-72
2022/05/17 05:26:47;;;;;;;5.10;2.37;;;;;;;16.86;73.05;97843.50;6257425;28;20288;-71
2022/05/17 05:29:49;;;;;;;3.33;1.97;;;;;;;16.84;73.16;97838.31;6258430;28;20246;-72
2022/05/17 05:32:51;;;;;;;3.97;2.23;;;;;;;16.90;73.09;97845.66;6256385;28;20239;-71
2022/05/17 05:35:53;;;;;;;4.47;1.90;;;;;;;16.89;73.40;97848.50;6256763;28;20322;-70
2022/05/17 05:38:55;;;;;;;5.40;2.40;;;;;;;16.86;73.51;97844.31;6256417;28;20241;-70
2022/05/17 05:41:57;;;;;;;7.77;2.40;;;;;;;16.91;73.28;97841.16;6256977;28;20313;-71
2022/05/17 05:44:59;;;;;;;3.27;2.73;;;;;;;16.87;73.35;97853.16;6247186;28;20229;-71
2022/05/17 05:48:02;;;;;;;3.63;2.47;;;;;;;16.90;73.63;97844.81;6254418;28;20230;-71
2022/05/17 05:51:04;;;;;;;2.33;2.00;;;;;;;17.00;73.29;97850.03;6257093;28;20215;-72
2022/05/17 05:54:06;;;;;;;3.20;2.30;;;;;;;17.03;73.18;97847.91;6238792;28;20199;-71
2022/05/17 05:57:08;;;;;;;2.37;2.17;;;;;;;17.09;73.13;97839.25;6256147;28;20309;-71
2022/05/17 06:00:11;;;;;;;3.03;2.47;;;;;;;17.08;72.86;97847.41;6257526;28;20215;-70
2022/05/17 06:03:14;;;;;;;6.60;2.67;;;;;;;17.16;73.23;97840.31;6245269;28;20235;-71
2022/05/17 06:06:16;;;;;;;3.97;3.20;;;;;;;17.11;72.71;97852.44;6256324;28;20226;-71
2022/05/17 06:09:18;;;;;;;4.13;2.73;;;;;;;17.21;72.70;97843.31;6256441;28;20277;-71
2022/05/17 06:12:20;;;;;;;3.70;3.30;;;;;;;17.24;72.68;97842.16;6256105;28;20225;-71
2022/05/17 06:15:24;;;;;;;4.03;3.23;;;;;;;17.30;72.16;97837.00;6237310;28;20222;-70
2022/05/17 06:18:27;;;;;;;7.53;3.03;;;;;;;17.40;71.74;97846.72;6237354;28;20278;-71
2022/05/17 06:21:29;;;;;;;4.33;2.97;;;;;;;17.60;71.77;97845.44;6255198;28;20223;-71
2022/05/17 06:24:31;;;;;;;4.97;3.20;;;;;;;17.76;70.35;97839.34;6254250;28;20225;-70
2022/05/17 06:27:33;;;;;;;3.13;2.73;;;;;;;17.84;69.94;97832.19;6255952;28;20721;-70
2022/05/17 06:30:37;;;;;;;4.50;2.93;;;;;;;17.87;69.15;97828.31;6255485;28;20703;-71
2022/05/17 06:33:39;;;;;;;3.33;2.57;;;;;;;17.86;69.34;97832.03;6255568;28;20353;-71
2022/05/17 06:36:45;;;;;;;3.80;2.67;;;;;;;17.97;69.38;97831.66;6255366;28;20702;-71
2022/05/17 06:39:55;;;;;;;3.00;2.27;;;;;;;18.15;69.18;97840.38;6255178;28;20706;-71
2022/05/17 06:42:57;;;;;;;4.23;2.30;;;;;;;18.14;68.98;97841.38;6237595;28;20243;-70
2022/05/17 06:46:03;;;;;;;4.37;2.50;;;;;;;18.12;69.22;97843.38;6253971;28;20219;-71
2022/05/17 06:49:05;;;;;;;5.10;2.07;;;;;;;18.21;68.88;97841.53;6255573;28;20223;-70
2022/05/17 06:52:08;;;;;;;3.70;2.30;;;;;;;18.41;68.91;97842.88;6255611;28;20218;-70
2022/05/17 06:55:15;;;;;;;2.80;2.40;;;;;;;18.42;68.52;97845.38;6254436;28;20226;-71
2022/05/17 06:58:18;;;;;;;3.10;2.03;;;;;;;18.41;68.37;97849.06;6253816;28;20235;-70
2022/05/17 07:01:20;;;;;;;5.07;2.70;;;;;;;18.48;68.42;97848.38;6229169;28;20719;-70
2022/05/17 07:04:22;;;;;;;6.63;3.00;;;;;;;18.48;68.23;97848.38;6240029;28;20811;-70
2022/05/17 07:07:24;;;;;;;5.13;2.70;;;;;;;18.66;68.13;97860.59;6253931;28;20222;-70
2022/05/17 07:13:47;;;;;;;3.17;2.73;;;;;;;18.73;67.46;97858.06;6253828;28;20227;-69
2022/05/17 07:16:49;;;;;;;6.13;2.50;;;;;;;18.76;67.63;97858.56;6236204;28;20280;-71
2022/05/17 07:19:52;;;;;;;3.20;2.70;;;;;;;18.84;67.67;97863.06;6253637;28;20231;-70
2022/05/17 07:22:54;;;;;;;3.10;2.80;;;;;;;19.00;66.49;97857.66;6235806;28;20269;-70
2022/05/17 07:25:56;;;;;;;4.80;2.90;;;;;;;19.23;65.58;97867.63;6236666;28;20309;-70
2022/05/17 07:28:58;;;;;;;5.50;3.50;;;;;;;19.22;65.29;97857.94;6254051;28;20235;-71
2022/05/17 07:32:00;;;;;;;4.47;3.70;;;;;;;19.56;64.66;97849.63;6254684;28;20231;-70
2022/05/17 07:35:02;;;;;;;4.40;3.27;;;;;;;19.41;64.55;97858.34;6236463;28;20223;-71
2022/05/17 07:38:06;;;;;;;4.07;3.53;;;;;;;19.64;64.14;97861.13;6252375;28;20229;-71
2022/05/17 07:41:09;;;;;;;5.17;4.03;;;;;;;19.51;63.52;97858.16;6236641;28;20242;-71
2022/05/17 07:44:11;;;;;;;5.30;3.50;;;;;;;19.56;64.05;97860.34;6236487;28;20766;-70
2022/05/17 07:47:13;;;;;;;4.20;3.50;;;;;;;19.75;63.38;97873.28;6253281;28;20235;-69
2022/05/17 07:50:16;;;;;;;6.17;4.40;;;;;;;19.45;64.67;97866.88;6253657;28;20238;-69
2022/05/17 07:53:20;;;;;;;5.00;3.70;;;;;;;19.22;65.04;97864.13;6254040;28;20635;-71
2022/05/17 07:56:22;;;;;;;6.70;3.80;;;;;;;19.06;65.85;97873.03;6252453;28;20356;-70
2022/05/17 07:59:26;;;;;;;6.23;4.20;;;;;;;18.73;65.98;97871.44;6248554;28;20231;-70
2022/05/17 08:02:28;;;;;;;4.27;3.80;;;;;;;18.52;67.11;97879.13;6253772;28;20284;-71
2022/05/17 08:05:31;;;;;;;5.10;3.77;;;;;;;18.33;67.77;97893.66;6251569;28;20457;-70
2022/05/17 08:08:33;;;;;;;6.20;4.03;;;;;;;18.23;68.12;97882.28;6252962;28;20224;-70
2022/05/17 08:11:35;;;;;;;5.70;4.00;;;;;;;18.35;67.59;97883.63;6234751;28;20638;-70
2022/05/17 08:14:39;;;;;;;4.33;3.70;;;;;;;18.48;67.19;97873.25;6252803;28;20226;-70
2022/05/17 08:17:41;;;;;;;4.57;3.80;;;;;;;18.61;66.65;97888.81;6254139;28;20273;-71
2022/05/17 08:20:44;;;;;;;3.63;3.07;;;;;;;18.80;65.31;97878.59;6254450;28;20766;-70
2022/05/17 08:23:46;;;;;;;3.23;2.90;;;;;;;19.18;64.63;97865.47;6234048;28;20254;-70
2022/05/17 08:30:16;;;;;;;3.47;2.60;;;;;;;19.28;64.68;97884.00;6244974;28;20231;-70
2022/05/17 08:33:23;;;;;;;4.00;2.43;;;;;;;18.88;64.18;97891.13;6253372;28;20345;-70
2022/05/17 08:36:25;;;;;;;3.43;2.33;;;;;;;18.58;66.46;97897.16;6252378;28;20249;-71
2022/05/17 08:39:28;;;;;;;2.67;2.13;;;;;;;18.26;67.35;97898.00;6252554;28;20258;-71
2022/05/17 08:42:48;;;;;;;2.57;2.13;;;;;;;18.31;67.33;97895.66;6252638;28;20227;-70
2022/05/17 08:45:59;;;;;;;4.47;2.27;;;;;;;18.42;66.87;97898.84;6234892;28;20219;-71
2022/05/17 08:49:25;;;;;;;4.53;2.40;;;;;;;18.56;64.40;97923.22;6251867;28;20231;-71
2022/05/17 08:52:29;;;;;;;2.80;2.57;;;;;;;18.60;64.87;97889.81;6252661;28;20318;-70
2022/05/17 08:55:34;;;;;;;3.93;2.50;;;;;;;19.36;63.67;97898.19;6251218;28;20393;-69
2022/05/17 08:58:39;;;;;;;5.73;2.53;;;;;;;19.66;61.58;97891.25;6226371;28;20719;-71
2022/05/17 09:02:09;;;;;;;5.23;3.20;;;;;;;19.50;61.41;97891.31;6239499;28;20236;-71
2022/05/17 09:05:33;;;;;;;5.33;2.80;;;;;;;19.62;62.09;97886.41;6234559;28;20321;-71
2022/05/17 09:08:35;;;;;;;4.00;2.80;;;;;;;19.74;61.79;97874.28;6251010;28;20262;-69
2022/05/17 09:11:48;;;;;;;2.67;2.43;;;;;;;19.81;60.66;97872.56;6254178;28;20235;-70
2022/05/17 09:14:54;;;;;;;3.33;2.77;;;;;;;20.46;59.75;97899.75;6252427;28;20227;-71
2022/05/17 09:18:03;;;;;;;3.47;2.73;;;;;;;20.95;58.15;97876.03;6253048;28;20324;-70
2022/05/17 09:21:31;;;;;;;3.57;2.57;;;;;;;21.94;54.70;97863.91;6234326;28;20270;-70
2022/05/17 09:24:43;;;;;;;4.97;3.17;;;;;;;22.22;54.27;97853.25;6235920;28;20384;-70
2022/05/17 09:27:49;;;;;;;4.73;3.10;;;;;;;22.02;54.46;97884.50;6241495;28;20234;-72
2022/05/17 09:31:11;;;;;;;5.03;3.43;;;;;;;21.71;54.55;97865.91;6228087;28;20263;-71
2022/05/17 09:34:25;;;;;;;5.07;2.83;;;;;;;22.74;52.83;97858.25;6252032;28;20231;-71
2022/05/17 09:37:38;;;;;;;5.23;3.30;;;;;;;22.95;51.42;97865.50;6251452;28;20227;-70
2022/05/17 09:40:41;;;;;;;4.97;3.00;;;;;;;23.63;51.04;97868.38;6253062;28;20242;-71
2022/05/17 09:43:50;;;;;;;5.67;2.50;;;;;;;24.54;48.94;97858.84;6251926;28;20239;-70
2022/05/17 09:46:59;;;;;;;4.03;2.63;;;;;;;24.93;47.55;97874.25;6252102;28;20557;-71
2022/05/17 09:53:43;;;;;;;4.03;3.40;;;;;;;24.14;48.45;97864.19;6254625;28;20231;-71
2022/05/17 09:56:45;;;;;;;4.20;3.37;;;;;;;25.09;47.53;97871.09;6238341;28;21091;-72
2022/05/17 09:59:49;;;;;;;6.03;2.97;;;;;;;25.36;46.02;97871.84;6255498;28;20657;-71
2022/05/17 10:02:50;;;;;;;4.20;3.23;;;;;;;25.66;45.64;97855.97;6238629;28;20280;-70
2022/05/17 10:06:27;;;;;;;4.20;3.20;;;;;;;25.70;45.93;97858.06;6255569;28;20219;-71
2022/05/17 10:09:33;;;;;;;3.60;3.00;;;;;;;25.40;46.48;97854.19;6238061;28;20216;-71
2022/05/17 10:12:37;;;;;;;3.67;3.38;;;;;;;24.98;46.68;97863.63;6254453;28;20353;-72
2022/05/17 10:15:44;;;;;;;3.55;3.10;;;;;;;25.38;46.09;97856.25;6256748;28;20358;-72
2022/05/17 10:19:02;;;;;;;2.78;2.58;;;;;;;25.18;46.52;97858.19;6255549;28;20227;-71
2022/05/17 10:22:30;;;;;;;4.80;3.10;;;;;;;24.48;47.95;97851.56;6255839;28;20227;-71
2022/05/17 10:25:35;;;;;;;4.53;2.70;;;;;;;23.60;50.79;97849.91;6255984;28;20235;-71
2022/05/17 10:28:48;;;;;;;2.70;2.50;;;;;;;23.43;51.95;97854.78;6237184;28;20305;-71
2022/05/17 10:32:04;;;;;;;4.07;2.17;;;;;;;23.50;51.50;97843.03;6229133;28;20368;-71
2022/05/17 10:35:32;;;;;;;4.60;3.30;;;;;;;23.78;51.17;97848.31;6227568;28;20227;-71
2022/05/17 10:38:43;;;;;;;2.80;2.60;;;;;;;23.98;49.43;97853.75;6255572;28;20317;-70
2022/05/17 10:41:45;;;;;;;4.13;2.60;;;;;;;23.41;51.53;97856.84;6256457;28;20304;-70
2022/05/17 10:44:56;;;;;;;4.10;2.57;;;;;;;22.99;52.23;97852.44;6254843;28;20276;-71
2022/05/17 10:48:13;;;;;;;4.17;2.73;;;;;;;22.59;53.38;97876.34;6255160;28;20234;-70
2022/05/17 10:51:38;;;;;;;3.20;2.90;;;;;;;21.98;54.29;97867.91;6254315;28;20674;-70
2022/05/17 10:55:06;;;;;;;3.73;2.70;;;;;;;21.38;55.85;97856.59;6255161;28;20227;-70
2022/05/17 10:58:36;;;;;;;2.93;2.33;;;;;;;21.12;57.23;97868.63;6254590;28;20570;-70
2022/05/17 11:02:13;;;;;;;4.17;2.60;;;;;;;21.73;56.53;97853.97;6254891;28;20356;-71
2022/05/17 11:05:34;;;;;;;5.90;2.80;;;;;;;22.30;56.03;97847.75;6253989;28;20230;-71
2022/05/17 11:09:06;;;;;;;3.90;2.90;;;;;;;22.11;56.23;97845.69;6255540;28;20746;-71
2022/05/17 11:12:15;;;;;;;6.13;3.40;;;;;;;21.66;57.91;97846.84;6254672;28;20229;-70
2022/05/17 11:15:26;;;;;;;3.23;2.83;;;;;;;21.04;60.45;97847.25;6255851;28;20208;-71
2022/05/17 11:18:37;;;;;;;3.70;3.20;;;;;;;21.17;60.23;97849.28;6253991;28;20223;-70
2022/05/17 11:21:42;;;;;;;3.20;2.50;;;;;;;20.85;61.81;97843.28;6254474;28;20301;-70
2022/05/17 11:24:59;;;;;;;5.00;2.30;;;;;;;21.21;62.67;97832.66;6253656;28;20301;-71
2022/05/17 11:28:31;;;;;;;3.70;3.10;;;;;;;21.16;63.14;97836.91;6236155;28;20645;-70
2022/05/17 11:31:33;;;;;;;4.43;2.60;;;;;;;21.59;63.00;97841.38;6229951;28;20231;-70
2022/05/17 11:34:44;;;;;;;3.03;2.43;;;;;;;21.89;62.03;97830.56;6252820;28;20706;-71
2022/05/17 11:37:49;;;;;;;3.90;2.40;;;;;;;22.25;60.56;97820.63;6233786;28;20297;-70
2022/05/17 11:40:54;;;;;;;2.83;2.60;;;;;;;22.62;61.08;97819.47;6247860;28;20223;-70
2022/05/17 11:44:08;;;;;;;3.13;2.77;;;;;;;22.85;57.73;97821.09;6254348;28;20300;-71
2022/05/17 11:47:27;;;;;;;3.37;3.03;;;;;;;23.32;56.01;97826.53;6253971;28;20707;-70
2022/05/17 11:50:29;;;;;;;3.03;2.73;;;;;;;23.30;56.16;97828.59;6252004;28;20227;-71
2022/05/17 11:53:45;;;;;;;4.13;2.73;;;;;;;23.68;55.31;97812.00;6253459;28;20638;-72
2022/05/17 11:56:48;;;;;;;3.40;3.10;;;;;;;24.70;52.82;97820.63;6253773;28;20234;-70
2022/05/17 11:59:55;;;;;;;3.53;3.00;;;;;;;25.56;48.85;97813.16;6253749;28;20223;-73
2022/05/17 12:03:00;;;;;;;2.40;2.20;;;;;;;26.26;47.92;97814.00;6228860;28;20266;-71
2022/05/17 12:06:02;;;;;;;2.13;1.93;;;;;;;26.34;48.84;97821.09;6236056;28;20231;-71
2022/05/17 12:09:18;;;;;;;4.70;2.50;;;;;;;26.04;50.49;97820.84;6253988;28;20709;-71
2022/05/17 12:12:42;;;;;;;2.80;2.50;;;;;;;24.24;50.99;97824.19;6234607;28;20289;-71
2022/05/17 12:15:53;;;;;;;2.95;2.75;;;;;;;23.41;56.19;97827.19;6254336;28;20725;-71
2022/05/17 12:19:06;;;;;;;4.00;3.03;;;;;;;22.74;57.37;97828.66;6253519;28;20919;-70
2022/05/17 12:22:14;;;;;;;3.57;3.10;;;;;;;22.58;59.13;97828.94;6252225;28;20314;-71
2022/05/17 12:25:34;;;;;;;3.50;2.20;;;;;;;22.68;59.73;97821.34;6253104;28;20325;-71
2022/05/17 12:30:52;;;;;;;3.23;2.93;;;;;;;23.82;56.53;97816.41;6255998;28;20292;-71
2022/05/17 12:32:19;;;;;;;1.90;1.80;;;;;;;25.16;53.29;97817.03;6252475;28;20247;-70
2022/05/17 12:35:24;;;;;;;2.33;2.13;;;;;;;25.71;49.59;97800.22;6234329;28;20235;-71
2022/05/17 12:45:25;;;;;;;2.00;1.90;;;;;;;24.99;50.52;97812.09;6234674;28;20236;-71
2022/05/17 12:48:35;;;;;;;2.33;2.03;;;;;;;24.00;52.21;97802.31;6253081;28;20231;-71
2022/05/17 12:51:37;;;;;;;5.40;2.87;;;;;;;23.87;52.35;97808.50;6253304;28;20340;-71
2022/05/17 12:54:40;;;;;;;2.43;1.77;;;;;;;23.97;52.98;97803.56;6235224;28;20229;-71
2022/05/17 12:57:42;;;;;;;2.40;2.20;;;;;;;24.14;52.36;97796.75;6233256;28;20266;-71
2022/05/17 13:00:53;;;;;;;1.97;1.80;;;;;;;23.80;52.09;97808.50;6251486;28;20231;-72
2022/05/17 13:03:58;;;;;;;2.97;2.67;;;;;;;23.27;54.19;97790.47;6236302;28;20236;-71
2022/05/17 13:07:16;;;;;;;2.77;2.40;;;;;;;23.72;54.38;97799.78;6228201;28;20232;-71
2022/05/17 13:10:18;;;;;;;2.83;2.63;;;;;;;24.07;53.39;97787.81;6215755;28;20236;-71
2022/05/17 13:13:22;;;;;;;4.33;3.43;;;;;;;24.04;52.07;97790.09;6230773;28;20592;-70
2022/05/17 13:16:34;;;;;;;4.57;4.10;;;;;;;23.87;52.62;97786.94;6227088;28;20307;-71
2022/05/17 13:19:38;;;;;;;5.30;4.27;;;;;;;23.41;53.49;97787.63;6210215;28;20235;-71
2022/05/17 13:22:43;;;;;;;5.53;3.90;;;;;;;23.97;52.72;97786.53;6210493;28;20321;-72
2022/05/17 13:25:47;;;;;;;4.50;3.87;;;;;;;25.05;51.04;97793.41;6198306;28;20346;-71
2022/05/17 13:28:49;;;;;;;3.93;3.57;;;;;;;26.46;47.54;97779.53;6213856;28;20718;-71
2022/05/17 13:32:02;;;;;;;5.38;3.75;;;;;;;26.25;47.64;97793.44;6230672;28;20722;-71
2022/05/17 13:35:10;;;;;;;5.90;5.13;;;;;;;24.93;49.71;97788.66;6233835;28;20271;-71
2022/05/17 13:38:12;;;;;;;3.78;3.47;;;;;;;25.15;50.06;97783.00;6232377;28;20231;-71
2022/05/17 13:41:30;;;;;;;4.88;4.25;;;;;;;24.81;50.90;97790.31;6231800;28;20377;-71
2022/05/17 13:44:38;;;;;;;4.13;3.72;;;;;;;24.40;53.28;97795.94;6232015;28;20224;-72
2022/05/17 13:47:45;;;;;;;4.10;3.70;;;;;;;23.64;55.50;97790.03;6231455;28;20227;-71
2022/05/17 13:50:55;;;;;;;4.87;4.07;;;;;;;22.99;58.02;97807.50;6231399;28;20833;-70
2022/05/17 13:54:09;;;;;;;7.20;4.93;;;;;;;22.63;59.35;97778.09;6232128;28;20243;-70
2022/05/17 13:57:21;;;;;;;6.53;5.87;;;;;;;23.26;59.40;97776.16;6231053;28;20260;-69
2022/05/17 14:00:29;;;;;;;9.07;5.17;;;;;;;24.75;58.13;97777.66;6232049;28;20702;-69
2022/05/17 14:03:31;;;;;;;4.47;3.53;;;;;;;25.98;52.57;97762.19;6245833;28;20261;-69
2022/05/17 14:07:00;;;;;;;9.07;5.57;;;;;;;27.74;50.60;97755.22;6255877;28;20341;-69
2022/05/17 14:14:03;;;;;;;4.90;4.38;;;;;;;32.37;39.36;97737.91;6256146;28;20437;-69
2022/05/17 14:17:18;;;;;;;4.65;4.22;;;;;;;33.11;38.07;97729.66;6238503;28;20241;-69
2022/05/17 14:20:20;;;;;;;5.10;3.80;;;;;;;33.62;36.71;97723.31;6229182;28;20289;-71
2022/05/17 14:23:22;;;;;;;4.03;3.70;;;;;;;34.92;35.13;97724.75;6251576;28;20239;-70
2022/05/17 14:26:24;;;;;;;3.85;3.50;;;;;;;35.11;32.15;97726.63;6237833;28;20226;-70
2022/05/17 14:29:30;;;;;;;3.85;3.50;;;;;;;33.32;35.21;97729.53;6255608;28;20234;-71
2022/05/17 14:32:32;;;;;;;4.10;3.55;;;;;;;29.99;41.27;97738.31;6238166;28;20235;-70
2022/05/17 14:35:35;;;;;;;6.38;4.00;;;;;;;27.14;47.50;97760.56;6255380;28;20227;-70
2022/05/17 14:38:38;;;;;;;4.30;3.90;;;;;;;25.38;52.33;97767.09;6237511;28;20223;-71
2022/05/17 14:41:48;;;;;;;5.57;4.90;;;;;;;23.96;54.68;97771.44;6254626;28;20345;-69
2022/05/17 14:44:50;;;;;;;4.25;3.95;;;;;;;23.87;56.28;97760.00;6255262;28;20660;-69
2022/05/17 14:47:52;;;;;;;4.05;3.75;;;;;;;25.78;52.51;97754.22;6255068;28;20768;-69
2022/05/17 14:50:55;;;;;;;4.32;3.67;;;;;;;24.89;53.98;97754.16;6255425;28;20227;-68
2022/05/17 14:53:57;;;;;;;6.45;3.67;;;;;;;25.19;53.55;97739.13;6254703;28;20233;-70
2022/05/17 14:57:00;;;;;;;5.00;4.57;;;;;;;25.42;51.41;97741.31;6255926;28;20222;-70
2022/05/17 15:00:04;;;;;;;4.70;4.00;;;;;;;27.35;47.52;97732.13;6229075;28;20228;-70
2022/05/17 15:03:15;;;;;;;5.57;4.78;;;;;;;29.62;42.98;97727.81;6235930;28;20742;-70
2022/05/17 15:06:17;;;;;;;5.68;3.50;;;;;;;31.63;38.49;97729.56;6254885;28;20314;-70
2022/05/17 15:09:24;;;;;;;6.88;4.20;;;;;;;32.59;36.96;97735.88;6254286;28;20297;-70
2022/05/17 15:12:36;;;;;;;6.05;4.60;;;;;;;32.59;35.09;97733.97;6236725;28;20230;-70
2022/05/17 15:15:42;;;;;;;4.03;3.40;;;;;;;31.93;34.55;97729.03;6254855;28;20273;-70
2022/05/17 15:18:48;;;;;;;3.38;3.05;;;;;;;29.68;39.07;97739.63;6254909;28;20227;-70
2022/05/17 15:21:52;;;;;;;4.50;3.03;;;;;;;29.01;39.83;97747.47;6237917;28;20238;-70
2022/05/17 15:24:56;;;;;;;9.90;3.63;;;;;;;28.80;40.17;97745.38;6253909;28;20318;-70
2022/05/17 15:27:59;;;;;;;2.55;2.35;;;;;;;28.80;40.21;97753.53;6254242;28;20235;-70
2022/05/17 15:31:01;;;;;;;5.15;3.00;;;;;;;26.54;44.32;97759.50;6235879;28;20237;-71
2022/05/17 15:34:05;;;;;;;3.08;2.50;;;;;;;25.05;48.71;97775.34;6236221;28;20332;-71
2022/05/17 15:37:08;;;;;;;2.63;2.40;;;;;;;24.39;50.24;97763.78;6255082;28;20733;-70
2022/05/17 15:40:10;;;;;;;2.90;2.60;;;;;;;23.54;53.98;97770.72;6253691;28;20231;-70
2022/05/17 15:43:12;;;;;;;3.37;2.80;;;;;;;23.47;55.50;97770.66;6253893;28;20672;-71
2022/05/17 15:46:21;;;;;;;2.67;2.47;;;;;;;25.67;49.44;97784.66;6235324;28;20241;-71
2022/05/17 15:56:09;;;;;;;2.30;2.10;;;;;;;25.63;48.20;97776.16;6255475;28;20231;-71
2022/05/17 15:59:15;;;;;;;2.87;2.10;;;;;;;24.21;51.82;97786.81;6254158;28;20231;-71
2022/05/17 16:02:18;;;;;;;2.40;2.13;;;;;;;24.04;52.83;97785.53;6253510;28;20239;-71
2022/05/17 16:05:20;;;;;;;3.40;2.00;;;;;;;23.08;55.62;97790.16;6236430;28;20242;-71